sensor_id;sensor_type;location;lat;lon;timestamp;temperature;humidity
20204;DHT22;10261;49.010;12.034;2023-02-22T00:00:56;4.30;99.90
20204;DHT22;10261;49.010;12.034;2023-02-22T00:02:02;4.30;99.90
20204;DHT22;10261;49.010;12.034;2023-02-22T00:03:27;4.30;99.90
20204;DHT22;10261;49.010;12.034;2023-02-22T00:04:29;4.20;99.90
20204;DHT22;10261;49.010;12.034;2023-02-22T00:05:32;4.20;99.90
20204;DHT22;10261;49.010;12.034;2023-02-22T00:06:34;4.20;99.90
20204;DHT22;10261;49.010;12.034;2023-02-22T00:07:37;4.30;99.90
20204;DHT22;10261;49.010;12.034;2023-02-22T00:08:39;4.30;99.90
20204;DHT22;10261;49.010;12.034;2023-02-22T00:09:42;4.20;99.90
20204;DHT22;10261;49.010;12.034;2023-02-22T00:10:44;4.20;99.90
20204;DHT22;10261;49.010;12.034;2023-02-22T00:11:48;4.10;99.90
20204;DHT22;10261;49.010;12.034;2023-02-22T00:12:50;4.20;99.90
20204;DHT22;10261;49.010;12.034;2023-02-22T00:13:54;4.20;99.90
20204;DHT22;10261;49.010;12.034;2023-02-22T00:14:59;4.20;99.90
20204;DHT22;10261;49.010;12.034;2023-02-22T00:16:02;4.20;99.90
20204;DHT22;10261;49.010;12.034;2023-02-22T00:17:05;4.20;99.90
20204;DHT22;10261;49.010;12.034;2023-02-22T00:18:08;4.30;99.90
20204;DHT22;10261;49.010;12.034;2023-02-22T00:19:11;4.30;99.90
20204;DHT22;10261;49.010;12.034;2023-02-22T00:20:15;4.30;99.90
20204;DHT22;10261;49.010;12.034;2023-02-22T00:21:20;4.40;99.90
20204;DHT22;10261;49.010;12.034;2023-02-22T00:22:23;4.30;99.90
20204;DHT22;10261;49.010;12.034;2023-02-22T00:23:26;4.20;99.90
20204;DHT22;10261;49.010;12.034;2023-02-22T00:24:31;4.20;99.90
20204;DHT22;10261;49.010;12.034;2023-02-22T00:25:34;4.30;99.90
20204;DHT22;10261;49.010;12.034;2023-02-22T00:26:40;4.20;99.90
20204;DHT22;10261;49.010;12.034;2023-02-22T00:27:42;4.20;99.90
20204;DHT22;10261;49.010;12.034;2023-02-22T00:28:46;4.20;99.90
20204;DHT22;10261;49.010;12.034;2023-02-22T00:29:49;4.20;99.90
20204;DHT22;10261;49.010;12.034;2023-02-22T00:30:53;4.10;99.90
20204;DHT22;10261;49.010;12.034;2023-02-22T00:31:56;4.00;99.90
20204;DHT22;10261;49.010;12.034;2023-02-22T00:32:59;4.00;99.90
20204;DHT22;10261;49.010;12.034;2023-02-22T00:34:02;3.90;99.90
20204;DHT22;10261;49.010;12.034;2023-02-22T00:35:04;3.90;99.90
20204;DHT22;10261;49.010;12.034;2023-02-22T00:36:10;3.90;99.90
20204;DHT22;10261;49.010;12.034;2023-02-22T00:37:12;4.00;99.90
20204;DHT22;10261;49.010;12.034;2023-02-22T00:38:17;4.10;99.90
20204;DHT22;10261;49.010;12.034;2023-02-22T00:39:19;4.20;99.90
20204;DHT22;10261;49.010;12.034;2023-02-22T00:40:24;4.30;99.90
20204;DHT22;10261;49.010;12.034;2023-02-22T00:41:26;4.30;99.90
20204;DHT22;10261;49.010;12.034;2023-02-22T00:42:29;4.20;99.90
20204;DHT22;10261;49.010;12.034;2023-02-22T00:43:31;4.10;99.90
20204;DHT22;10261;49.010;12.034;2023-02-22T00:44:34;4.00;99.90
20204;DHT22;10261;49.010;12.034;2023-02-22T00:45:36;4.20;99.90
20204;DHT22;10261;49.010;12.034;2023-02-22T00:46:41;4.20;99.90
20204;DHT22;10261;49.010;12.034;2023-02-22T00:47:43;4.20;99.90
20204;DHT22;10261;49.010;12.034;2023-02-22T00:48:46;4.20;99.90
20204;DHT22;10261;49.010;12.034;2023-02-22T00:49:48;4.20;99.90
20204;DHT22;10261;49.010;12.034;2023-02-22T00:50:51;4.20;99.90
20204;DHT22;10261;49.010;12.034;2023-02-22T00:51:56;4.20;99.90
20204;DHT22;10261;49.010;12.034;2023-02-22T00:53:00;4.20;99.90
20204;DHT22;10261;49.010;12.034;2023-02-22T00:54:02;4.00;99.90
20204;DHT22;10261;49.010;12.034;2023-02-22T00:55:08;4.00;99.90
20204;DHT22;10261;49.010;12.034;2023-02-22T00:56:11;4.00;99.90
20204;DHT22;10261;49.010;12.034;2023-02-22T00:57:14;4.00;99.90
20204;DHT22;10261;49.010;12.034;2023-02-22T00:58:19;4.10;99.90
20204;DHT22;10261;49.010;12.034;2023-02-22T00:59:22;4.10;99.90
20204;DHT22;10261;49.010;12.034;2023-02-22T01:00:26;4.00;99.90
20204;DHT22;10261;49.010;12.034;2023-02-22T01:01:29;4.00;99.90
20204;DHT22;10261;49.010;12.034;2023-02-22T01:02:33;4.00;99.90
20204;DHT22;10261;49.010;12.034;2023-02-22T01:03:36;4.10;99.90
20204;DHT22;10261;49.010;12.034;2023-02-22T01:04:42;4.00;99.90
20204;DHT22;10261;49.010;12.034;2023-02-22T01:05:45;3.90;99.90
20204;DHT22;10261;49.010;12.034;2023-02-22T01:06:48;3.90;99.90
20204;DHT22;10261;49.010;12.034;2023-02-22T01:07:50;3.90;99.90
20204;DHT22;10261;49.010;12.034;2023-02-22T01:08:52;3.80;99.90
20204;DHT22;10261;49.010;12.034;2023-02-22T01:09:55;3.70;99.90
20204;DHT22;10261;49.010;12.034;2023-02-22T01:10:58;3.70;99.90
20204;DHT22;10261;49.010;12.034;2023-02-22T01:12:01;3.60;99.90
20204;DHT22;10261;49.010;12.034;2023-02-22T01:13:04;3.70;99.90
20204;DHT22;10261;49.010;12.034;2023-02-22T01:14:10;3.70;99.90
20204;DHT22;10261;49.010;12.034;2023-02-22T01:15:14;3.80;99.90
20204;DHT22;10261;49.010;12.034;2023-02-22T01:16:17;3.80;99.90
20204;DHT22;10261;49.010;12.034;2023-02-22T01:17:19;3.90;99.90
20204;DHT22;10261;49.010;12.034;2023-02-22T01:18:24;3.90;99.90
20204;DHT22;10261;49.010;12.034;2023-02-22T01:19:26;4.00;99.90
20204;DHT22;10261;49.010;12.034;2023-02-22T01:20:29;4.00;99.90
20204;DHT22;10261;49.010;12.034;2023-02-22T01:21:31;3.80;99.90
20204;DHT22;10261;49.010;12.034;2023-02-22T01:22:34;3.80;99.90
20204;DHT22;10261;49.010;12.034;2023-02-22T01:23:36;3.80;99.90
20204;DHT22;10261;49.010;12.034;2023-02-22T01:24:39;3.70;99.90
20204;DHT22;10261;49.010;12.034;2023-02-22T01:25:41;3.60;99.90
20204;DHT22;10261;49.010;12.034;2023-02-22T01:26:50;3.70;99.90
20204;DHT22;10261;49.010;12.034;2023-02-22T01:27:52;3.60;99.90
20204;DHT22;10261;49.010;12.034;2023-02-22T01:28:55;3.60;99.90
20204;DHT22;10261;49.010;12.034;2023-02-22T01:29:57;3.70;99.90
20204;DHT22;10261;49.010;12.034;2023-02-22T01:31:00;3.70;99.90
20204;DHT22;10261;49.010;12.034;2023-02-22T01:32:04;3.50;99.90
20204;DHT22;10261;49.010;12.034;2023-02-22T01:33:07;3.50;99.90
20204;DHT22;10261;49.010;12.034;2023-02-22T01:34:12;3.50;99.90
20204;DHT22;10261;49.010;12.034;2023-02-22T01:35:20;3.50;99.90
20204;DHT22;10261;49.010;12.034;2023-02-22T01:36:23;3.50;99.90
20204;DHT22;10261;49.010;12.034;2023-02-22T01:37:25;3.50;99.90
20204;DHT22;10261;49.010;12.034;2023-02-22T01:38:28;3.50;99.90
20204;DHT22;10261;49.010;12.034;2023-02-22T01:39:31;3.60;99.90
20204;DHT22;10261;49.010;12.034;2023-02-22T01:40:35;3.60;99.90
20204;DHT22;10261;49.010;12.034;2023-02-22T01:41:38;3.60;99.90
20204;DHT22;10261;49.010;12.034;2023-02-22T01:42:40;3.50;99.90
20204;DHT22;10261;49.010;12.034;2023-02-22T01:43:43;3.50;99.90
20204;DHT22;10261;49.010;12.034;2023-02-22T01:46:24;3.40;99.90
20204;DHT22;10261;49.010;12.034;2023-02-22T01:47:27;3.50;99.90
20204;DHT22;10261;49.010;12.034;2023-02-22T01:48:34;3.50;99.90
20204;DHT22;10261;49.010;12.034;2023-02-22T01:49:43;3.50;99.90
20204;DHT22;10261;49.010;12.034;2023-02-22T01:50:51;3.50;99.90
20204;DHT22;10261;49.010;12.034;2023-02-22T01:51:58;3.60;99.90
20204;DHT22;10261;49.010;12.034;2023-02-22T01:53:02;3.60;99.90
20204;DHT22;10261;49.010;12.034;2023-02-22T01:54:07;3.60;99.90
20204;DHT22;10261;49.010;12.034;2023-02-22T01:55:15;3.70;99.90
20204;DHT22;10261;49.010;12.034;2023-02-22T01:56:19;3.70;99.90
20204;DHT22;10261;49.010;12.034;2023-02-22T01:57:25;3.70;99.90
20204;DHT22;10261;49.010;12.034;2023-02-22T01:58:29;3.60;99.90
20204;DHT22;10261;49.010;12.034;2023-02-22T01:59:36;3.70;99.90
20204;DHT22;10261;49.010;12.034;2023-02-22T02:00:39;3.60;99.90
20204;DHT22;10261;49.010;12.034;2023-02-22T02:01:42;3.60;99.90
20204;DHT22;10261;49.010;12.034;2023-02-22T02:02:54;3.50;99.90
20204;DHT22;10261;49.010;12.034;2023-02-22T02:04:03;3.50;99.90
20204;DHT22;10261;49.010;12.034;2023-02-22T02:05:08;3.40;99.90
20204;DHT22;10261;49.010;12.034;2023-02-22T02:06:13;3.60;99.90
20204;DHT22;10261;49.010;12.034;2023-02-22T02:07:18;3.50;99.90
20204;DHT22;10261;49.010;12.034;2023-02-22T02:08:27;3.60;99.90
20204;DHT22;10261;49.010;12.034;2023-02-22T02:09:35;3.50;99.90
20204;DHT22;10261;49.010;12.034;2023-02-22T02:10:41;3.60;99.90
20204;DHT22;10261;49.010;12.034;2023-02-22T02:11:44;3.60;99.90
20204;DHT22;10261;49.010;12.034;2023-02-22T02:12:49;3.60;99.90
20204;DHT22;10261;49.010;12.034;2023-02-22T02:13:53;3.70;99.90
20204;DHT22;10261;49.010;12.034;2023-02-22T02:15:15;3.70;99.90
20204;DHT22;10261;49.010;12.034;2023-02-22T02:16:17;3.60;99.90
20204;DHT22;10261;49.010;12.034;2023-02-22T02:17:22;3.60;99.90
20204;DHT22;10261;49.010;12.034;2023-02-22T02:18:25;3.60;99.90
20204;DHT22;10261;49.010;12.034;2023-02-22T02:19:38;3.70;99.90
20204;DHT22;10261;49.010;12.034;2023-02-22T02:22:41;3.60;99.90
20204;DHT22;10261;49.010;12.034;2023-02-22T02:24:06;3.50;99.90
20204;DHT22;10261;49.010;12.034;2023-02-22T02:25:35;3.50;99.90
20204;DHT22;10261;49.010;12.034;2023-02-22T02:27:04;3.50;99.90
20204;DHT22;10261;49.010;12.034;2023-02-22T02:28:38;3.50;99.90
20204;DHT22;10261;49.010;12.034;2023-02-22T02:32:13;3.50;99.90
20204;DHT22;10261;49.010;12.034;2023-02-22T02:33:19;3.50;99.90
20204;DHT22;10261;49.010;12.034;2023-02-22T02:34:30;3.40;99.90
20204;DHT22;10261;49.010;12.034;2023-02-22T02:35:46;3.50;99.90
20204;DHT22;10261;49.010;12.034;2023-02-22T02:36:57;3.50;99.90
20204;DHT22;10261;49.010;12.034;2023-02-22T02:38:05;3.40;99.90
20204;DHT22;10261;49.010;12.034;2023-02-22T02:39:17;3.40;99.90
20204;DHT22;10261;49.010;12.034;2023-02-22T02:40:24;3.40;99.90
20204;DHT22;10261;49.010;12.034;2023-02-22T02:41:33;3.20;99.90
20204;DHT22;10261;49.010;12.034;2023-02-22T02:42:40;3.30;99.90
20204;DHT22;10261;49.010;12.034;2023-02-22T02:43:48;3.20;99.90
20204;DHT22;10261;49.010;12.034;2023-02-22T02:44:55;3.20;99.90
20204;DHT22;10261;49.010;12.034;2023-02-22T02:46:03;3.20;99.90
20204;DHT22;10261;49.010;12.034;2023-02-22T02:47:11;3.20;99.90
20204;DHT22;10261;49.010;12.034;2023-02-22T02:48:20;3.00;99.90
20204;DHT22;10261;49.010;12.034;2023-02-22T02:49:29;3.10;99.90
20204;DHT22;10261;49.010;12.034;2023-02-22T02:50:36;3.10;99.90
20204;DHT22;10261;49.010;12.034;2023-02-22T02:51:46;3.20;99.90
20204;DHT22;10261;49.010;12.034;2023-02-22T02:52:52;3.20;99.90
20204;DHT22;10261;49.010;12.034;2023-02-22T02:53:56;3.30;99.90
20204;DHT22;10261;49.010;12.034;2023-02-22T02:55:01;3.30;99.90
20204;DHT22;10261;49.010;12.034;2023-02-22T02:56:05;3.30;99.90
20204;DHT22;10261;49.010;12.034;2023-02-22T02:57:08;3.30;99.90
20204;DHT22;10261;49.010;12.034;2023-02-22T02:58:17;4.50;99.90
20204;DHT22;10261;49.010;12.034;2023-02-22T02:59:25;3.40;99.90
20204;DHT22;10261;49.010;12.034;2023-02-22T03:00:31;3.30;99.90
20204;DHT22;10261;49.010;12.034;2023-02-22T03:01:51;3.30;99.90
20204;DHT22;10261;49.010;12.034;2023-02-22T03:03:15;3.10;99.90
20204;DHT22;10261;49.010;12.034;2023-02-22T03:04:36;3.20;99.90
20204;DHT22;10261;49.010;12.034;2023-02-22T03:05:54;3.20;99.90
20204;DHT22;10261;49.010;12.034;2023-02-22T03:07:13;3.20;99.90
20204;DHT22;10261;49.010;12.034;2023-02-22T03:08:24;3.30;99.90
20204;DHT22;10261;49.010;12.034;2023-02-22T03:09:40;3.30;99.90
20204;DHT22;10261;49.010;12.034;2023-02-22T03:10:52;3.10;99.90
20204;DHT22;10261;49.010;12.034;2023-02-22T03:12:06;3.20;99.90
20204;DHT22;10261;49.010;12.034;2023-02-22T03:13:14;3.40;99.90
20204;DHT22;10261;49.010;12.034;2023-02-22T03:14:22;3.30;99.90
20204;DHT22;10261;49.010;12.034;2023-02-22T03:15:33;3.30;99.90
20204;DHT22;10261;49.010;12.034;2023-02-22T03:16:44;3.30;99.90
20204;DHT22;10261;49.010;12.034;2023-02-22T03:17:51;3.30;99.90
20204;DHT22;10261;49.010;12.034;2023-02-22T03:19:00;3.10;99.90
20204;DHT22;10261;49.010;12.034;2023-02-22T03:20:11;2.90;99.90
20204;DHT22;10261;49.010;12.034;2023-02-22T03:21:23;3.00;99.90
20204;DHT22;10261;49.010;12.034;2023-02-22T03:22:27;3.00;99.90
20204;DHT22;10261;49.010;12.034;2023-02-22T03:23:37;3.10;99.90
20204;DHT22;10261;49.010;12.034;2023-02-22T03:24:46;3.10;99.90
20204;DHT22;10261;49.010;12.034;2023-02-22T03:25:58;3.10;99.90
20204;DHT22;10261;49.010;12.034;2023-02-22T03:27:05;3.10;99.90
20204;DHT22;10261;49.010;12.034;2023-02-22T03:28:11;3.20;99.90
20204;DHT22;10261;49.010;12.034;2023-02-22T03:29:17;3.10;99.90
20204;DHT22;10261;49.010;12.034;2023-02-22T03:30:25;3.10;99.90
20204;DHT22;10261;49.010;12.034;2023-02-22T03:31:31;2.90;99.90
20204;DHT22;10261;49.010;12.034;2023-02-22T03:32:41;3.00;99.90
20204;DHT22;10261;49.010;12.034;2023-02-22T03:33:49;3.10;99.90
20204;DHT22;10261;49.010;12.034;2023-02-22T03:34:58;3.10;99.90
20204;DHT22;10261;49.010;12.034;2023-02-22T03:36:08;3.10;99.90
20204;DHT22;10261;49.010;12.034;2023-02-22T03:37:17;3.20;99.90
20204;DHT22;10261;49.010;12.034;2023-02-22T03:38:20;3.10;99.90
20204;DHT22;10261;49.010;12.034;2023-02-22T03:39:25;3.10;99.90
20204;DHT22;10261;49.010;12.034;2023-02-22T03:40:33;3.20;99.90
20204;DHT22;10261;49.010;12.034;2023-02-22T03:41:39;3.20;99.90
20204;DHT22;10261;49.010;12.034;2023-02-22T03:42:45;3.20;99.90
20204;DHT22;10261;49.010;12.034;2023-02-22T03:43:52;3.10;99.90
20204;DHT22;10261;49.010;12.034;2023-02-22T03:44:57;3.00;99.90
20204;DHT22;10261;49.010;12.034;2023-02-22T03:46:02;3.00;99.90
20204;DHT22;10261;49.010;12.034;2023-02-22T03:47:08;3.00;99.90
20204;DHT22;10261;49.010;12.034;2023-02-22T03:48:18;3.10;99.90
20204;DHT22;10261;49.010;12.034;2023-02-22T03:49:26;3.10;99.90
20204;DHT22;10261;49.010;12.034;2023-02-22T03:50:34;3.10;99.90
20204;DHT22;10261;49.010;12.034;2023-02-22T03:51:38;3.00;99.90
20204;DHT22;10261;49.010;12.034;2023-02-22T03:52:43;3.00;99.90
20204;DHT22;10261;49.010;12.034;2023-02-22T03:53:45;3.10;99.90
20204;DHT22;10261;49.010;12.034;2023-02-22T03:54:50;3.10;99.90
20204;DHT22;10261;49.010;12.034;2023-02-22T03:55:55;2.90;99.90
20204;DHT22;10261;49.010;12.034;2023-02-22T03:57:03;3.10;99.90
20204;DHT22;10261;49.010;12.034;2023-02-22T03:58:10;3.00;99.90
20204;DHT22;10261;49.010;12.034;2023-02-22T03:59:14;2.90;99.90
20204;DHT22;10261;49.010;12.034;2023-02-22T04:00:18;3.00;99.90
20204;DHT22;10261;49.010;12.034;2023-02-22T04:01:23;3.10;99.90
20204;DHT22;10261;49.010;12.034;2023-02-22T04:02:24;3.10;99.90
20204;DHT22;10261;49.010;12.034;2023-02-22T04:03:27;3.10;99.90
20204;DHT22;10261;49.010;12.034;2023-02-22T04:04:30;3.00;99.90
20204;DHT22;10261;49.010;12.034;2023-02-22T04:05:33;2.90;99.90
20204;DHT22;10261;49.010;12.034;2023-02-22T04:06:35;2.80;99.90
20204;DHT22;10261;49.010;12.034;2023-02-22T04:07:40;2.80;99.90
20204;DHT22;10261;49.010;12.034;2023-02-22T04:08:42;2.90;99.90
20204;DHT22;10261;49.010;12.034;2023-02-22T04:09:45;2.90;99.90
20204;DHT22;10261;49.010;12.034;2023-02-22T04:10:47;3.00;99.90
20204;DHT22;10261;49.010;12.034;2023-02-22T04:11:50;3.00;99.90
20204;DHT22;10261;49.010;12.034;2023-02-22T04:12:52;3.00;99.90
20204;DHT22;10261;49.010;12.034;2023-02-22T04:13:55;3.10;99.90
20204;DHT22;10261;49.010;12.034;2023-02-22T04:14:57;3.10;99.90
20204;DHT22;10261;49.010;12.034;2023-02-22T04:16:00;3.00;99.90
20204;DHT22;10261;49.010;12.034;2023-02-22T04:17:02;2.90;99.90
20204;DHT22;10261;49.010;12.034;2023-02-22T04:18:05;3.00;99.90
20204;DHT22;10261;49.010;12.034;2023-02-22T04:19:07;3.00;99.90
20204;DHT22;10261;49.010;12.034;2023-02-22T04:20:11;3.00;99.90
20204;DHT22;10261;49.010;12.034;2023-02-22T04:21:14;2.90;99.90
20204;DHT22;10261;49.010;12.034;2023-02-22T04:22:17;2.90;99.90
20204;DHT22;10261;49.010;12.034;2023-02-22T04:23:21;2.90;99.90
20204;DHT22;10261;49.010;12.034;2023-02-22T04:24:24;2.90;99.90
20204;DHT22;10261;49.010;12.034;2023-02-22T04:25:26;2.90;99.90
20204;DHT22;10261;49.010;12.034;2023-02-22T04:26:29;2.90;99.90
20204;DHT22;10261;49.010;12.034;2023-02-22T04:27:31;3.00;99.90
20204;DHT22;10261;49.010;12.034;2023-02-22T04:28:33;2.90;99.90
20204;DHT22;10261;49.010;12.034;2023-02-22T04:29:35;2.90;99.90
20204;DHT22;10261;49.010;12.034;2023-02-22T04:30:38;2.90;99.90
20204;DHT22;10261;49.010;12.034;2023-02-22T04:31:41;2.90;99.90
20204;DHT22;10261;49.010;12.034;2023-02-22T04:32:44;2.90;99.90
20204;DHT22;10261;49.010;12.034;2023-02-22T04:33:46;2.90;99.90
20204;DHT22;10261;49.010;12.034;2023-02-22T04:34:49;2.90;99.90
20204;DHT22;10261;49.010;12.034;2023-02-22T04:35:51;3.00;99.90
20204;DHT22;10261;49.010;12.034;2023-02-22T04:36:54;2.90;99.90
20204;DHT22;10261;49.010;12.034;2023-02-22T04:37:57;2.90;99.90
20204;DHT22;10261;49.010;12.034;2023-02-22T04:39:00;2.90;99.90
20204;DHT22;10261;49.010;12.034;2023-02-22T04:40:04;2.90;99.90
20204;DHT22;10261;49.010;12.034;2023-02-22T04:41:08;2.70;99.90
20204;DHT22;10261;49.010;12.034;2023-02-22T04:42:11;2.60;99.90
20204;DHT22;10261;49.010;12.034;2023-02-22T04:43:13;2.60;99.90
20204;DHT22;10261;49.010;12.034;2023-02-22T04:44:16;2.50;99.90
20204;DHT22;10261;49.010;12.034;2023-02-22T04:45:18;2.60;99.90
20204;DHT22;10261;49.010;12.034;2023-02-22T04:46:21;2.60;99.90
20204;DHT22;10261;49.010;12.034;2023-02-22T04:47:24;2.70;99.90
20204;DHT22;10261;49.010;12.034;2023-02-22T04:48:26;2.90;99.90
20204;DHT22;10261;49.010;12.034;2023-02-22T04:49:28;2.90;99.90
20204;DHT22;10261;49.010;12.034;2023-02-22T04:50:31;2.90;99.90
20204;DHT22;10261;49.010;12.034;2023-02-22T04:51:33;3.00;99.90
20204;DHT22;10261;49.010;12.034;2023-02-22T04:52:37;3.00;99.90
20204;DHT22;10261;49.010;12.034;2023-02-22T04:53:40;3.00;99.90
20204;DHT22;10261;49.010;12.034;2023-02-22T04:54:44;3.10;99.90
20204;DHT22;10261;49.010;12.034;2023-02-22T04:55:46;3.10;99.90
20204;DHT22;10261;49.010;12.034;2023-02-22T04:56:49;3.10;99.90
20204;DHT22;10261;49.010;12.034;2023-02-22T04:57:51;3.10;99.90
20204;DHT22;10261;49.010;12.034;2023-02-22T04:58:54;3.10;99.90
20204;DHT22;10261;49.010;12.034;2023-02-22T04:59:56;3.10;99.90
20204;DHT22;10261;49.010;12.034;2023-02-22T05:00:59;3.00;99.90
20204;DHT22;10261;49.010;12.034;2023-02-22T05:02:01;3.10;99.90
20204;DHT22;10261;49.010;12.034;2023-02-22T05:03:04;3.10;99.90
20204;DHT22;10261;49.010;12.034;2023-02-22T05:04:07;3.00;99.90
20204;DHT22;10261;49.010;12.034;2023-02-22T05:05:10;3.00;99.90
20204;DHT22;10261;49.010;12.034;2023-02-22T05:06:15;3.10;99.90
20204;DHT22;10261;49.010;12.034;2023-02-22T05:07:18;3.20;99.90
20204;DHT22;10261;49.010;12.034;2023-02-22T05:08:20;3.20;99.90
20204;DHT22;10261;49.010;12.034;2023-02-22T05:09:23;3.20;99.90
20204;DHT22;10261;49.010;12.034;2023-02-22T05:10:26;3.20;99.90
20204;DHT22;10261;49.010;12.034;2023-02-22T05:11:30;3.10;99.90
20204;DHT22;10261;49.010;12.034;2023-02-22T05:12:32;3.10;99.90
20204;DHT22;10261;49.010;12.034;2023-02-22T05:13:35;3.10;99.90
20204;DHT22;10261;49.010;12.034;2023-02-22T05:14:37;3.20;99.90
20204;DHT22;10261;49.010;12.034;2023-02-22T05:15:40;3.10;99.90
20204;DHT22;10261;49.010;12.034;2023-02-22T05:16:42;3.00;99.90
20204;DHT22;10261;49.010;12.034;2023-02-22T05:17:45;3.00;99.90
20204;DHT22;10261;49.010;12.034;2023-02-22T05:18:47;2.90;99.90
20204;DHT22;10261;49.010;12.034;2023-02-22T05:19:51;2.80;99.90
20204;DHT22;10261;49.010;12.034;2023-02-22T05:20:53;2.90;99.90
20204;DHT22;10261;49.010;12.034;2023-02-22T05:21:56;2.90;99.90
20204;DHT22;10261;49.010;12.034;2023-02-22T05:22:59;2.90;99.90
20204;DHT22;10261;49.010;12.034;2023-02-22T05:24:02;3.00;99.90
20204;DHT22;10261;49.010;12.034;2023-02-22T05:25:05;3.00;99.90
20204;DHT22;10261;49.010;12.034;2023-02-22T05:26:09;2.90;99.90
20204;DHT22;10261;49.010;12.034;2023-02-22T05:27:12;2.90;99.90
20204;DHT22;10261;49.010;12.034;2023-02-22T05:28:15;2.90;99.90
20204;DHT22;10261;49.010;12.034;2023-02-22T05:29:17;2.90;99.90
20204;DHT22;10261;49.010;12.034;2023-02-22T05:30:21;2.90;99.90
20204;DHT22;10261;49.010;12.034;2023-02-22T05:31:25;2.90;99.90
20204;DHT22;10261;49.010;12.034;2023-02-22T05:32:28;2.90;99.90
20204;DHT22;10261;49.010;12.034;2023-02-22T05:33:30;2.90;99.90
20204;DHT22;10261;49.010;12.034;2023-02-22T05:34:32;2.90;99.90
20204;DHT22;10261;49.010;12.034;2023-02-22T05:35:34;3.00;99.90
20204;DHT22;10261;49.010;12.034;2023-02-22T05:36:38;3.00;99.90
20204;DHT22;10261;49.010;12.034;2023-02-22T05:37:40;2.90;99.90
20204;DHT22;10261;49.010;12.034;2023-02-22T05:38:42;2.80;99.90
20204;DHT22;10261;49.010;12.034;2023-02-22T05:39:45;3.00;99.90
20204;DHT22;10261;49.010;12.034;2023-02-22T05:40:48;3.00;99.90
20204;DHT22;10261;49.010;12.034;2023-02-22T05:41:51;3.10;99.90
20204;DHT22;10261;49.010;12.034;2023-02-22T05:42:56;3.20;99.90
20204;DHT22;10261;49.010;12.034;2023-02-22T05:43:59;3.30;99.90
20204;DHT22;10261;49.010;12.034;2023-02-22T05:45:04;3.30;99.90
20204;DHT22;10261;49.010;12.034;2023-02-22T05:46:06;3.40;99.90
20204;DHT22;10261;49.010;12.034;2023-02-22T05:47:09;3.50;99.90
20204;DHT22;10261;49.010;12.034;2023-02-22T05:48:11;3.50;99.90
20204;DHT22;10261;49.010;12.034;2023-02-22T05:49:14;3.50;99.90
20204;DHT22;10261;49.010;12.034;2023-02-22T05:50:17;3.50;99.90
20204;DHT22;10261;49.010;12.034;2023-02-22T05:51:20;3.50;99.90
20204;DHT22;10261;49.010;12.034;2023-02-22T05:52:22;3.50;99.90
20204;DHT22;10261;49.010;12.034;2023-02-22T05:53:25;3.40;99.90
20204;DHT22;10261;49.010;12.034;2023-02-22T05:54:27;3.30;99.90
20204;DHT22;10261;49.010;12.034;2023-02-22T05:55:30;3.30;99.90
20204;DHT22;10261;49.010;12.034;2023-02-22T05:56:32;3.30;99.90
20204;DHT22;10261;49.010;12.034;2023-02-22T05:57:36;3.20;99.90
20204;DHT22;10261;49.010;12.034;2023-02-22T05:58:38;3.20;99.90
20204;DHT22;10261;49.010;12.034;2023-02-22T05:59:41;3.20;99.90
20204;DHT22;10261;49.010;12.034;2023-02-22T06:00:43;3.20;99.90
20204;DHT22;10261;49.010;12.034;2023-02-22T06:01:46;3.10;99.90
20204;DHT22;10261;49.010;12.034;2023-02-22T06:02:53;3.10;99.90
20204;DHT22;10261;49.010;12.034;2023-02-22T06:03:56;3.10;99.90
20204;DHT22;10261;49.010;12.034;2023-02-22T06:04:58;3.20;99.90
20204;DHT22;10261;49.010;12.034;2023-02-22T06:06:01;3.30;99.90
20204;DHT22;10261;49.010;12.034;2023-02-22T06:07:03;3.30;99.90
20204;DHT22;10261;49.010;12.034;2023-02-22T06:08:07;3.40;99.90
20204;DHT22;10261;49.010;12.034;2023-02-22T06:09:09;3.30;99.90
20204;DHT22;10261;49.010;12.034;2023-02-22T06:10:12;3.30;99.90
20204;DHT22;10261;49.010;12.034;2023-02-22T06:11:14;3.50;99.90
20204;DHT22;10261;49.010;12.034;2023-02-22T06:12:18;3.40;99.90
20204;DHT22;10261;49.010;12.034;2023-02-22T06:13:21;3.50;99.90
20204;DHT22;10261;49.010;12.034;2023-02-22T06:14:24;3.40;99.90
20204;DHT22;10261;49.010;12.034;2023-02-22T06:15:27;3.40;99.90
20204;DHT22;10261;49.010;12.034;2023-02-22T06:16:33;3.50;99.90
20204;DHT22;10261;49.010;12.034;2023-02-22T06:17:35;3.50;99.90
20204;DHT22;10261;49.010;12.034;2023-02-22T06:18:40;3.50;99.90
20204;DHT22;10261;49.010;12.034;2023-02-22T06:19:43;3.60;99.90
20204;DHT22;10261;49.010;12.034;2023-02-22T06:20:45;3.60;99.90
20204;DHT22;10261;49.010;12.034;2023-02-22T06:21:49;3.60;99.90
20204;DHT22;10261;49.010;12.034;2023-02-22T06:22:52;3.60;99.90
20204;DHT22;10261;49.010;12.034;2023-02-22T06:23:55;3.40;99.90
20204;DHT22;10261;49.010;12.034;2023-02-22T06:24:57;3.20;99.90
20204;DHT22;10261;49.010;12.034;2023-02-22T06:26:00;3.20;99.90
20204;DHT22;10261;49.010;12.034;2023-02-22T06:27:02;3.10;99.90
20204;DHT22;10261;49.010;12.034;2023-02-22T06:28:05;3.00;99.90
20204;DHT22;10261;49.010;12.034;2023-02-22T06:29:08;3.10;99.90
20204;DHT22;10261;49.010;12.034;2023-02-22T06:30:12;3.20;99.90
20204;DHT22;10261;49.010;12.034;2023-02-22T06:31:14;3.30;99.90
20204;DHT22;10261;49.010;12.034;2023-02-22T06:32:18;3.20;99.90
20204;DHT22;10261;49.010;12.034;2023-02-22T06:33:20;3.30;99.90
20204;DHT22;10261;49.010;12.034;2023-02-22T06:34:23;3.30;99.90
20204;DHT22;10261;49.010;12.034;2023-02-22T06:35:25;3.30;99.90
20204;DHT22;10261;49.010;12.034;2023-02-22T06:36:28;3.30;99.90
20204;DHT22;10261;49.010;12.034;2023-02-22T06:37:30;3.30;99.90
20204;DHT22;10261;49.010;12.034;2023-02-22T06:38:33;3.20;99.90
20204;DHT22;10261;49.010;12.034;2023-02-22T06:39:36;3.10;99.90
20204;DHT22;10261;49.010;12.034;2023-02-22T06:40:38;3.10;99.90
20204;DHT22;10261;49.010;12.034;2023-02-22T06:41:42;3.10;99.90
20204;DHT22;10261;49.010;12.034;2023-02-22T06:42:46;3.20;99.90
20204;DHT22;10261;49.010;12.034;2023-02-22T06:43:49;3.30;99.90
20204;DHT22;10261;49.010;12.034;2023-02-22T06:44:52;3.20;99.90
20204;DHT22;10261;49.010;12.034;2023-02-22T06:45:55;3.00;99.90
20204;DHT22;10261;49.010;12.034;2023-02-22T06:46:58;3.00;99.90
20204;DHT22;10261;49.010;12.034;2023-02-22T06:48:01;3.20;99.90
20204;DHT22;10261;49.010;12.034;2023-02-22T06:49:04;3.30;99.90
20204;DHT22;10261;49.010;12.034;2023-02-22T06:50:07;3.20;99.90
20204;DHT22;10261;49.010;12.034;2023-02-22T06:51:18;3.10;99.90
20204;DHT22;10261;49.010;12.034;2023-02-22T06:52:21;3.10;99.90
20204;DHT22;10261;49.010;12.034;2023-02-22T06:53:24;2.90;99.90
20204;DHT22;10261;49.010;12.034;2023-02-22T06:54:27;2.90;99.90
20204;DHT22;10261;49.010;12.034;2023-02-22T06:55:31;2.90;99.90